createdAt,value
2019-06-08T00:00:50.739Z,97382.19
2019-06-08T00:05:46.726Z,97387.15
2019-06-08T00:10:42.637Z,97397.91
2019-06-08T00:15:38.566Z,97402.62
2019-06-08T00:20:34.702Z,97409.23
2019-06-08T00:25:31.357Z,97398.14
2019-06-08T00:30:27.168Z,97419.85
2019-06-08T00:35:23.074Z,97422.27
2019-06-08T00:40:18.986Z,97432.30
2019-06-08T00:45:15.352Z,97440.11
2019-06-08T00:50:12.123Z,97451.17
2019-06-08T00:55:08.288Z,97455.87
2019-06-08T01:00:10.211Z,97458.64
2019-06-08T01:05:02.141Z,97473.25
2019-06-08T01:09:58.348Z,97480.93
2019-06-08T01:14:54.496Z,97477.05
2019-06-08T01:19:50.300Z,97480.94
2019-06-08T01:24:50.356Z,97483.59
2019-06-08T01:29:46.387Z,97484.94
2019-06-08T01:34:44.634Z,97498.12
2019-06-08T01:39:40.553Z,97502.11
2019-06-08T01:44:36.456Z,97506.73
2019-06-08T01:49:32.557Z,97512.79
2019-06-08T01:54:31.586Z,97522.82
2019-06-08T01:59:29.604Z,97525.20
2019-06-08T02:04:28.048Z,97517.67
2019-06-08T02:09:24.483Z,97530.20
2019-06-08T02:14:20.768Z,97516.84
2019-06-08T02:19:16.548Z,97536.29
2019-06-08T02:24:12.877Z,97533.22
2019-06-08T02:29:08.727Z,97531.55
2019-06-08T02:34:04.604Z,97533.89
2019-06-08T02:39:01.220Z,97523.30
2019-06-08T02:43:57.589Z,97544.45
2019-06-08T02:49:03.589Z,97537.96
2019-06-08T02:53:52.355Z,97544.89
2019-06-08T02:58:51.668Z,97551.41
2019-06-08T03:03:51.741Z,97565.63
2019-06-08T03:08:50.111Z,97565.83
2019-06-08T03:13:49.301Z,97576.91
2019-06-08T03:18:45.170Z,97575.41
2019-06-08T03:23:43.261Z,97586.98
2019-06-08T03:28:39.967Z,97594.25
2019-06-08T03:33:45.363Z,97594.11
2019-06-08T03:38:35.818Z,97601.22
2019-06-08T03:43:31.779Z,97613.21
2019-06-08T03:48:27.665Z,97624.78
2019-06-08T03:53:23.608Z,97629.16
2019-06-08T03:58:22.162Z,97635.14
2019-06-08T04:03:24.030Z,97643.13
2019-06-08T04:08:19.959Z,97642.59
2019-06-08T04:13:18.535Z,97644.25
2019-06-08T04:18:14.350Z,97643.91
2019-06-08T04:23:10.174Z,97634.06
2019-06-08T04:28:05.976Z,97641.31
2019-06-08T04:33:01.748Z,97650.25
2019-06-08T04:37:57.593Z,97655.20
2019-06-08T04:42:53.471Z,97662.00
2019-06-08T04:47:50.114Z,97668.13
2019-06-08T04:52:47.449Z,97675.97
2019-06-08T04:57:45.442Z,97671.75
2019-06-08T05:02:42.343Z,97688.91
2019-06-08T05:07:39.311Z,97675.72
2019-06-08T05:12:35.682Z,97683.80
2019-06-08T05:19:15.731Z,97692.53
2019-06-08T05:25:00.616Z,97684.39
2019-06-08T07:36:59.596Z,97817.58
2019-06-08T07:41:56.962Z,97816.16
2019-06-08T07:46:53.764Z,97807.86
2019-06-08T07:52:04.240Z,97810.34
2019-06-08T07:56:48.339Z,97816.80
2019-06-08T08:01:45.466Z,97821.98
2019-06-08T08:06:41.258Z,97814.30
2019-06-08T08:11:37.420Z,97818.72
2019-06-08T08:16:33.361Z,97817.80
2019-06-08T08:21:40.924Z,97812.97
2019-06-08T08:26:38.949Z,97809.77
2019-06-08T08:31:34.331Z,97818.20
2019-06-08T08:36:33.164Z,97814.83
2019-06-08T08:41:27.975Z,97817.81
2019-06-08T08:46:25.500Z,97817.61
2019-06-08T08:51:21.649Z,97810.02
2019-06-08T08:56:18.127Z,97808.89
2019-06-08T09:01:13.984Z,97810.39
2019-06-08T09:06:09.883Z,97804.02
2019-06-08T09:11:08.002Z,97807.89
2019-06-08T09:16:04.325Z,97816.64
2019-06-08T09:21:02.832Z,97791.82
2019-06-08T09:26:05.912Z,97799.54
2019-06-08T09:30:56.706Z,97809.72
2019-06-08T09:35:54.636Z,97806.05
2019-06-08T09:40:50.610Z,97813.17
2019-06-08T09:45:49.570Z,97795.52
2019-06-08T09:50:45.715Z,97814.19
2019-06-08T09:55:41.704Z,97813.17
2019-06-08T10:00:37.940Z,97817.70
2019-06-08T10:05:34.018Z,97807.85
2019-06-08T10:10:30.224Z,97785.38
2019-06-08T10:15:27.873Z,97793.48
2019-06-08T10:20:24.945Z,97795.61
2019-06-08T10:25:20.895Z,97788.27
2019-06-08T10:30:17.191Z,97790.94
2019-06-08T10:35:13.380Z,97791.59
2019-06-08T10:40:10.021Z,97766.01
2019-06-08T10:45:12.075Z,97775.55
2019-06-08T10:50:10.147Z,97781.25
2019-06-08T10:55:05.025Z,97775.56
2019-06-08T11:00:01.464Z,97768.20
2019-06-08T11:05:04.712Z,97762.43
2019-06-08T11:09:58.657Z,97764.62
2019-06-08T11:14:54.883Z,97762.97
2019-06-08T11:19:50.676Z,97760.27
2019-06-08T11:24:48.607Z,97758.58
2019-06-08T11:29:44.374Z,97758.31
2019-06-08T11:34:52.058Z,97760.30
2019-06-08T11:39:49.182Z,97754.23
2019-06-08T11:44:47.955Z,97745.65
2019-06-08T11:49:48.013Z,97738.20
2019-06-08T11:54:43.414Z,97737.08
2019-06-08T11:59:40.485Z,97738.19
2019-06-08T12:04:38.413Z,97733.84
2019-06-08T12:09:34.350Z,97732.95
2019-06-08T12:14:33.524Z,97739.91
2019-06-08T12:19:28.352Z,97742.20
2019-06-08T12:24:38.488Z,97736.53
2019-06-08T12:29:22.850Z,97738.19
2019-06-08T12:34:18.773Z,97736.91
2019-06-08T12:39:21.429Z,97729.59
2019-06-08T12:44:19.902Z,97733.00
2019-06-08T12:49:16.475Z,97732.65
2019-06-08T12:54:13.067Z,97728.13
2019-06-08T12:59:13.825Z,97731.94
2019-06-08T13:04:07.558Z,97732.45
2019-06-08T13:09:03.417Z,97730.95
2019-06-08T13:13:59.321Z,97730.08
2019-06-08T13:18:55.202Z,97721.73
2019-06-08T13:23:51.186Z,97727.03
2019-06-08T13:28:47.062Z,97711.70
2019-06-08T13:33:43.054Z,97717.02
2019-06-08T13:38:39.194Z,97719.38
2019-06-08T13:43:35.047Z,97720.39
2019-06-08T13:48:32.682Z,97722.66
2019-06-08T13:53:41.101Z,97710.45
2019-06-08T13:58:45.498Z,97710.88
2019-06-08T14:03:41.488Z,97705.47
2019-06-08T14:08:38.631Z,97705.14
2019-06-08T14:13:34.994Z,97700.03
2019-06-08T14:18:38.593Z,97691.72
2019-06-08T14:23:38.223Z,97690.80
2019-06-08T14:28:32.452Z,97687.64
2019-06-08T14:33:41.848Z,97674.67
2019-06-08T14:38:41.632Z,97672.43
2019-06-08T14:43:38.364Z,97664.61
2019-06-08T14:48:34.398Z,97671.30
2019-06-08T14:53:31.171Z,97673.32
2019-06-08T14:58:35.354Z,97669.45
2019-06-08T15:03:31.348Z,97666.25
2019-06-08T15:08:28.568Z,97662.38
2019-06-08T15:13:26.212Z,97660.03
2019-06-08T15:18:23.870Z,97644.04
2019-06-08T15:23:22.895Z,97651.53
2019-06-08T15:28:18.286Z,97646.57
2019-06-08T15:33:14.482Z,97644.08
2019-06-08T15:38:10.797Z,97643.14
2019-06-08T15:43:08.664Z,97633.08
2019-06-08T15:48:08.220Z,97635.73
2019-06-08T15:53:08.450Z,97641.76
2019-06-08T15:58:08.829Z,97631.09
2019-06-08T16:03:02.510Z,97630.48
2019-06-08T16:07:58.418Z,97635.50
2019-06-08T16:12:54.572Z,97631.62
2019-06-08T16:17:52.198Z,97632.25
2019-06-08T16:22:48.130Z,97627.61
2019-06-08T16:27:44.140Z,97623.45
2019-06-08T16:32:40.225Z,97620.39
2019-06-08T16:37:36.258Z,97611.53
2019-06-08T16:42:32.488Z,97613.31
2019-06-08T16:47:29.519Z,97608.09
2019-06-08T16:52:30.440Z,97609.29
2019-06-08T16:57:41.223Z,97615.09
2019-06-08T17:02:32.986Z,97613.93
2019-06-08T17:07:32.128Z,97614.77
2019-06-08T17:12:27.805Z,97620.73
2019-06-08T17:17:23.971Z,97624.56
2019-06-08T17:22:21.563Z,97626.01
2019-06-08T17:27:26.770Z,97625.98
2019-06-08T17:32:54.105Z,97626.73
2019-06-08T17:37:56.049Z,97618.11
2019-06-08T17:43:02.577Z,97609.56
2019-06-08T17:48:09.594Z,97606.55
2019-06-08T17:58:54.559Z,97606.06
2019-06-08T18:03:54.656Z,97606.48
2019-06-08T18:08:50.985Z,97603.98
2019-06-08T18:13:52.828Z,97605.27
2019-06-08T18:18:57.691Z,97592.47
2019-06-08T18:23:57.097Z,97601.70
2019-06-08T18:29:18.026Z,97604.94
2019-06-08T18:34:17.925Z,97601.44
2019-06-08T18:39:14.076Z,97594.94
2019-06-08T18:44:12.403Z,97602.47
2019-06-08T18:49:13.050Z,97602.11
2019-06-08T18:54:18.677Z,97609.41
2019-06-08T18:59:12.667Z,97612.73
2019-06-08T19:04:11.411Z,97615.58
2019-06-08T19:09:17.603Z,97618.73
2019-06-08T19:14:30.052Z,97606.98
2019-06-08T19:19:31.489Z,97617.30
2019-06-08T19:24:39.035Z,97618.64
2019-06-08T19:29:39.426Z,97625.30
2019-06-08T20:12:30.937Z,97644.95
2019-06-08T20:23:38.340Z,97664.77
2019-06-08T20:28:34.347Z,97655.02
2019-06-08T20:33:37.922Z,97661.54
2019-06-08T20:38:49.357Z,97658.05
2019-06-08T20:43:52.484Z,97665.83
2019-06-08T20:48:53.252Z,97662.59
2019-06-08T20:53:50.843Z,97667.74
2019-06-08T20:58:51.365Z,97664.45
2019-06-08T21:03:48.594Z,97676.97
2019-06-08T21:08:46.598Z,97679.36
2019-06-08T21:13:49.345Z,97674.02
2019-06-08T21:18:44.694Z,97675.52
2019-06-08T21:23:40.720Z,97675.73
2019-06-08T21:28:38.538Z,97668.20
2019-06-08T21:33:34.251Z,97680.97
2019-06-08T21:38:30.144Z,97676.72
2019-06-08T21:43:27.997Z,97683.19
2019-06-08T21:48:23.685Z,97683.45
2019-06-08T21:53:20.039Z,97692.28
2019-06-08T21:58:17.831Z,97692.46
2019-06-08T22:03:17.483Z,97696.27
2019-06-08T22:08:12.913Z,97691.85
2019-06-08T22:13:12.186Z,97700.53
2019-06-08T22:18:14.511Z,97699.97
2019-06-08T22:23:10.464Z,97699.05
2019-06-08T22:28:09.595Z,97700.69
2019-06-08T22:33:05.612Z,97689.41
2019-06-08T22:38:01.572Z,97699.08
2019-06-08T22:43:01.043Z,97688.27
2019-06-08T22:47:58.609Z,97684.92
2019-06-08T22:52:55.839Z,97686.05
2019-06-08T22:57:53.801Z,97689.59
2019-06-08T23:02:49.771Z,97685.79
2019-06-08T23:07:45.865Z,97682.67
2019-06-08T23:12:47.800Z,97671.53
2019-06-08T23:17:39.507Z,97678.45
2019-06-08T23:22:38.172Z,97676.79
2019-06-08T23:27:33.320Z,97687.59
2019-06-08T23:32:29.145Z,97684.33
2019-06-08T23:37:27.628Z,97681.50
2019-06-08T23:42:22.819Z,97676.09
2019-06-08T23:47:18.727Z,97685.14
2019-06-08T23:52:14.593Z,97675.47
2019-06-08T23:57:13.878Z,97670.37
